Tiempo atmosférico en la estación meteorológica de A Pobra de Trives, Ourense (840 m.)

Fecha
DESCASC
Temp. máxima en grados centígrados (hora)
DESCASC
Temp. mínima en grados centígrados (hora)
DESCASC
Temp. media en grados centígrados
DESCASC
Racha de viento máxima en m/sg (hora)
DESCASC
Velocidad máxima media en intervalos de 10 minutos(hora)
DESCASC
Precipitaciones diarias en mm
DESCASC
Precipitaciones de 00:00 a 06:00 en mm
DESCASC
Precipitaciones de 06:00 a 12:00 en mm
DESCASC
Precipitaciones de 12:00 a 18:00 en mm
DESCASC
Precipitaciones de 18:00 a 24:00 en mm
DESCASC
10-12-2017 11.7 (12:20) 4.6 (23:59) 8.1 28.33 (22:00) 11.39 (18:00) 70.6 0 3.4 23.6 43.6
09-12-2017 11.3 (15:00) 7.2 (04:20) 9.3 13.33 (13:40) 6.11 (22:00) 4.6 0.4 3.6 0.4 0.2
08-12-2017 10.9 (15:30) 5.4 (00:00) 8.1 7.5 (11:30) 3.61 (09:20) 10.8 1.6 1.8 6 1.4
07-12-2017 8.5 (12:30) 1 (00:00) 4.8 5 (11:40) 2.78 (08:20) 15.4 0 0 6.8 8.6
06-12-2017 8.3 (14:10) -3.6 (-00:0) 2.4 4.44 (22:00) 2.78 (04:30) 0 0 0 0 0
05-12-2017 7.8 (14:50) -3.7 (-00:0) 2.1 4.17 (23:59) 2.5 (22:30) 0 0 0 0 0
04-12-2017 7.4 (14:20) -4 (-00:0) 1.7 4.44 (00:10) 2.78 (07:10) 0 0 0 0 0
03-12-2017 6.9 (14:50) -3.4 (-00:0) 1.8 4.44 (23:20) 2.5 (23:40) 0 0 0 0 0
02-12-2017 6.5 (13:30) -1.7 (-00:0) 2.4 7.5 (13:30) 3.61 (15:00) 0 0 0 0 0
01-12-2017 5.9 (14:20) -0.5 (-00:0) 2.7 12.22 (10:10) 5 (11:20) 3 0.6 2.2 0.2 0
30-11-2017 6.9 (13:20) -3.9 (-00:0) 1.5 6.67 (14:00) 3.61 (16:00) 0 0 0 0 0
29-11-2017 6.6 (14:30) -0.6 (-00:0) 3 6.67 (16:50) 3.61 (16:10) 0 0 0 0 0
28-11-2017 10.1 (13:50) -1.7 (-00:0) 4.2 6.39 (17:00) 3.33 (19:20) 0 0 0 0 0
27-11-2017 9.5 (14:50) -3.2 (-00:0) 3.1 5.28 (22:10) 3.06 (07:40) 0 0 0 0 0
26-11-2017 8.9 (15:00) 0 (00:00) 4.4 5.83 (12:10) 3.33 (13:10) 0 0 0 0 0
25-11-2017 11 (13:20) 1.7 (00:00) 6.4 6.94 (00:50) 3.06 (00:50) 2.8 2.8 0 0 0
24-11-2017 12 (14:30) 8.9 (00:00) 10.4 8.61 (22:20) 4.72 (22:30) 30 4.4 3 6.2 16.4
23-11-2017 17.3 (14:50) 8.6 (00:00) 12.9 15 (13:50) 5.28 (17:10) 3.4 2 0 0 1.4
22-11-2017 18 (14:30) 4.6 (00:00) 11.3 16.39 (16:20) 6.67 (13:30) 0 0 0 0 0
21-11-2017 14.3 (13:30) 0.6 (00:00) 7.5 11.67 (23:40) 5.83 (23:40) 0 0 0 0 0
20-11-2017 15.8 (14:40) 1 (00:00) 8.4 5.28 (22:30) 3.06 (21:20) 0 0 0 0 0
19-11-2017 15.9 (15:10) 0.7 (00:00) 8.3 4.44 (05:00) 2.78 (01:00) 0 0 0 0 0
18-11-2017 15.6 (15:10) 1.7 (00:00) 8.7 4.72 (23:30) 2.78 (02:50) 0 0 0 0 0
17-11-2017 16.2 (14:00) 2 (00:00) 9.1 4.44 (00:40) 2.78 (01:00) 0 0 0 0 0
16-11-2017 16.5 (15:30) 1.7 (00:00) 9.1 4.72 (20:40) 3.06 (02:10) 0 0 0 0 0
15-11-2017 16.4 (15:40) 2.1 (00:00) 9.2 4.44 (21:40) 2.78 (23:30) 0 0 0 0 0

Gráficas

Temp. máximas Temp. mínimas Temp. medias Precipitaciones Rachas de viento máximas Velocidades máximas media en intervalos de 10 minutos

Datos horarios

Fecha y hora oficial Temperatura (ºC) Velocidad del viento (km/h) Dirección del viento Racha (km/h) Dirección de racha Precipitación (mm) Presión (hPa) Tendencia (hPa) Humedad (%)
2017-12-14 23:00:00 5.8 14 Oeste 27 Oeste 0 920 0.1 92
2017-12-14 22:00:00 6.3 17 Oeste 39 Noroeste 0 920.5 0.7 92
2017-12-14 21:00:00 6.6 9 Oeste 35 Oeste 0.2 920.2 0.2 91
2017-12-14 20:00:00 7.2 19 Oeste 38 Oeste 0 919.9 0 92
2017-12-14 19:00:00 8.2 17 Oeste 42 Oeste 0.6 919.8 -0.1 95
2017-12-14 18:00:00 9.1 15 Oeste 41 Oeste 1 920 0.4 94
2017-12-14 17:00:00 9.8 18 Oeste 45 Oeste 0.4 919.9 -0.5 94
2017-12-14 16:00:00 10.3 14 Oeste 50 Oeste 3.4 919.9 -1.6 94
2017-12-14 15:00:00 11.4 23 Oeste 53 Oeste 0.2 919.6 -2.9 93
2017-12-14 14:00:00 12 17 Oeste 36 Sudoeste 0.2 920.4 -2.3 92
2017-12-14 13:00:00 11.7 10 Oeste 33 Oeste 1 921.5 -0.8 96
2017-12-14 12:00:00 10.5 12 Oeste 32 Oeste 2.4 922.5 0.3 95
2017-12-14 11:00:00 10.2 13 Oeste 35 Noroeste 0.4 922.7 0.9 95
2017-12-14 10:00:00 10.2 17 Oeste 38 Oeste 0.2 922.3 0.4 95
2017-12-14 09:00:00 10.3 22 Oeste 48 Oeste 0.2 922.2 0.1 94
2017-12-14 08:00:00 10.5 26 Oeste 55 Oeste 0.2 921.8 -1 94
2017-12-14 07:00:00 10.5 17 Oeste 33 Oeste 0.4 921.9 -1.5 95
2017-12-14 06:00:00 10.3 16 Oeste 41 Oeste 0 922.1 -1.8 95
2017-12-14 05:00:00 10.5 19 Oeste 42 Oeste 0.2 922.8 -1.2 95
2017-12-14 04:00:00 10.5 15 Oeste 35 Oeste 0 923.4 -1.3 95
2017-12-14 03:00:00 10.5 19 Oeste 41 Oeste 0.6 923.9 -1.2 95
2017-12-14 02:00:00 10.4 19 Oeste 40 Oeste 0.2 924 -1.3 95
2017-12-14 01:00:00 10.2 17 Oeste 38 Oeste 0.2 924.7 -0.8 95
2017-12-14 00:00:00 10.1 19 Oeste 41 Oeste 0 925.1 -0.4 94
2017-12-13 23:00:00 9.9 16 Oeste 40 Oeste 0 925.3 -0.2 93
2017-12-13 22:00:00 9.6 19 Oeste 44 Oeste 0.2 925.5 -0.2 93
2017-12-13 21:00:00 9.5 15 Oeste 50 Oeste 0 925.5 -0.5 92
2017-12-13 20:00:00 9.5 22 Oeste 44 Oeste 0 925.5 -0.1 90
2017-12-13 19:00:00 9.1 11 Oeste 37 Oeste 0 925.7 -0.4 90
2017-12-13 18:00:00 9.2 13 Oeste 32 Oeste 0 926 0 89
2017-12-13 17:00:00 9.8 15 Oeste 33 Oeste 0 925.6 -1.1 86
2017-12-13 16:00:00 10.3 9 Oeste 27 Oeste 0 926.1 -1.1 81
2017-12-13 15:00:00 10.1 14 Sudoeste 33 Oeste 0 926 -1.5 76
2017-12-13 14:00:00 9.3 10 Oeste 22 Oeste 0 926.7 -0.6 80
2017-12-13 13:00:00 9.5 5 Sur 19 Oeste 0 927.2 0 80
2017-12-13 12:00:00 10.9 9 Oeste 25 Oeste 0 927.5 1 73
2017-12-13 11:00:00 6.9 4 Nordeste 8 Nordeste 0 927.3 0.6 94
2017-12-13 10:00:00 5 6 Este 14 Nordeste 0 927.2 1.5 95
2017-12-13 09:00:00 4.1 4 Este 12 Nordeste 0 926.5 1.2 95
2017-12-13 08:00:00 4.2 6 Este 14 Nordeste 0 926.7 1.2 96
2017-12-13 07:00:00 4 3 Sur 13 Norte 0 925.7 -0.1 95
2017-12-13 06:00:00 4.1 4 Norte 10 Norte 0 925.3 -0.7 96
2017-12-13 05:00:00 3.8 4 Noroeste 9 Noroeste 0 925.5 0 96
2017-12-13 04:00:00 3.7 4 Este 7 Este 0 925.8 0.1 95
2017-12-13 03:00:00 3.6 3 Noroeste 8 Este 0.2 926 0.2 95
2017-12-13 02:00:00 3.5 3 Norte 8 Norte 0.2 925.5 0.1 95
2017-12-13 01:00:00 3.4 0 Calma 5 Sudeste 0.2 925.7 0.6 94
2017-12-13 00:00:00 3.4 3 Sudeste 15 Oeste 0.2 925.8 0.8 94
2017-12-12 23:00:00 3.4 5 Oeste 12 Oeste 0 925.4 0.8 90
2017-12-12 22:00:00 3.6 10 Oeste 21 Sudoeste 0 925.1 1.1 87
2017-12-12 21:00:00 3.3 12 Oeste 21 Oeste 0 925 1.4 89
2017-12-12 20:00:00 3 7 Oeste 14 Oeste 0 924.6 1.6 90
2017-12-12 19:00:00 3.8 6 Oeste 18 Oeste 0 924 1.1 89
2017-12-12 18:00:00 3.9 8 Oeste 17 Oeste 0 923.6 1.2 89
2017-12-12 17:00:00 4.4 11 Oeste 21 Oeste 0 923 0.6 86
2017-12-12 16:00:00 4.8 6 Oeste 16 Sudoeste 0 922.9 1 89
2017-12-12 15:00:00 4.9 8 Oeste 17 Oeste 0.2 922.4 0.6 88
2017-12-12 14:00:00 5.6 8 Oeste 19 Oeste 0 922.4 1.1 84
2017-12-12 13:00:00 5.6 8 Oeste 21 Oeste 0 921.9 1.7 87
2017-12-12 12:00:00 4 9 Oeste 18 Oeste 0.2 921.8 2.2 93
2017-12-12 11:00:00 2.9 5 Oeste 14 Noroeste 0 921.3 2.6 94
2017-12-12 10:00:00 2.5 7 Oeste 18 Oeste 0 920.2 1.9 94
2017-12-12 09:00:00 1.7 10 Oeste 21 Oeste 0.2 919.6 1.9 94
2017-12-12 08:00:00 1.9 8 Oeste 23 Noroeste 0 918.7 1.8 95
2017-12-12 07:00:00 1.7 11 Oeste 24 Oeste 0.6 918.3 2.1 94
2017-12-12 06:00:00 1.8 9 Oeste 22 Oeste 0 917.7 2.2 94
2017-12-12 05:00:00 1.6 10 Oeste 18 Oeste 0 916.9 1.5 94
2017-12-12 04:00:00 1.5 9 Oeste 24 Oeste 0 916.2 1.3 94
2017-12-12 03:00:00 1.5 8 Oeste 18 Oeste 0.2 915.5 1.5 94
2017-12-12 02:00:00 1.3 10 Oeste 20 Oeste 0 915.4 2.1 93
2017-12-12 01:00:00 1.2 8 Oeste 24 Noroeste 0 914.9 2.7 94
2017-12-12 00:00:00 1.3 11 Oeste 25 Oeste 0.2 914 3.1 94
2017-12-11 23:00:00 1.2 9 Oeste 25 Oeste 0 913.3 3.3 94
2017-12-11 22:00:00 1.1 10 Oeste 27 Oeste 0.2 912.2 3.6 94
2017-12-11 21:00:00 1.1 10 Oeste 29 Oeste 0 910.9 3.3 93
2017-12-11 20:00:00 1.1 15 Oeste 30 Oeste 0 910 3.8 94
2017-12-11 19:00:00 0.9 16 Oeste 38 Oeste 0 908.6 3.9 92
2017-12-11 18:00:00 1.8 12 Noroeste 30 Noroeste 0 907.6 4.3 89
2017-12-11 17:00:00 1.7 11 Oeste 29 Noroeste 0 906.2 3.7 89
2017-12-11 16:00:00 1.9 13 Noroeste 39 Oeste 0.4 904.7 3.4 88
2017-12-11 15:00:00 2.8 15 Oeste 42 Noroeste 0 903.3 2.8 92
2017-12-11 14:00:00 2.4 16 Oeste 32 Oeste 1.4 902.5 3.2 94
2017-12-11 13:00:00 2.2 10 Oeste 22 Oeste 1.2 901.3 3.2 94
2017-12-11 12:00:00 0.9 12 Oeste 21 Oeste 4 900.5 3.1 95
2017-12-11 11:00:00 1.2 12 Oeste 35 Sudoeste 2.2 899.3 2 93
2017-12-11 10:00:00 2.3 17 Oeste 36 Oeste 1 898.1 1.3 93
2017-12-11 09:00:00 2.1 16 Oeste 36 Oeste 0 897.4 1.2 93
2017-12-11 08:00:00 1.6 11 Oeste 32 Oeste 0.2 897.3 2 93
2017-12-11 07:00:00 1.7 15 Oeste 31 Oeste 0.4 896.8 2.6 93
2017-12-11 06:00:00 1.4 17 Oeste 34 Oeste 1.8 896.2 3 94
2017-12-11 05:00:00 1.5 15 Oeste 39 Noroeste 1.8 895.3 2.6 93
2017-12-11 04:00:00 3.4 19 Oeste 47 Oeste 1.4 894.2 1.4 93
2017-12-11 03:00:00 3.9 22 Oeste 49 Oeste 2.8 893.2 0.5 92
2017-12-11 02:00:00 4.6 19 Oeste 48 Sudoeste 0.8 892.7 -1.6 92
2017-12-11 01:00:00 4.8 21 Oeste 51 Sudoeste 4.2 892.8 1.2 92
2017-12-11 00:00:00 4.7 21 Oeste 50 Oeste 6.4 892.7 -1.1 92
2017-12-10 23:00:00 5.9 27 Oeste 75 Oeste 6.4 894.3 -2 91
2017-12-10 22:00:00 10.8 40 Oeste 102 Sudoeste 11 891.6 -6.9 91
2017-12-10 21:00:00 11.2 35 Sudoeste 93 Oeste 8 893.8 -7.3 90
2017-12-10 20:00:00 10.6 31 Oeste 82 Sudoeste 6.6 896.3 -6.3 89
2017-12-10 19:00:00 11.3 33 Sudoeste 73 Sudoeste 5.2 898.5 -6.3 89
2017-12-10 18:00:00 11.2 41 Oeste 78 Oeste 4 901.1 -5.8 89
2017-12-10 17:00:00 11.4 31 Sudoeste 81 Sudoeste 3.4 902.6 -6.2 89
2017-12-10 16:00:00 11.2 35 Sudoeste 87 Sudoeste 6.8 904.8 -6.4 90
2017-12-10 15:00:00 11.3 36 Sudoeste 76 Sudoeste 4.4 906.9 -5.9 89
2017-12-10 14:00:00 11.2 29 Oeste 71 Sudoeste 3.4 908.8 -4.9 90
2017-12-10 13:00:00 11.4 30 Oeste 71 Oeste 1.6 911.2 -3.5 89
2017-12-10 12:00:00 11.5 31 Oeste 80 Sudoeste 0.8 912.8 -3 88
2017-12-10 11:00:00 11.2 34 Oeste 73 Oeste 0.2 913.7 -3.1 88
2017-12-10 10:00:00 10.9 28 Oeste 55 Sudoeste 1 914.7 -3.1 91
2017-12-10 09:00:00 10.2 25 Oeste 62 Oeste 1 915.8 -3.1 91
2017-12-10 08:00:00 10.2 26 Oeste 58 Oeste 0.2 916.8 -3.3 88
2017-12-10 07:00:00 9.9 23 Oeste 53 Oeste 0.2 917.8 -3.3 90
2017-12-10 06:00:00 9.5 26 Oeste 58 Oeste 0 918.9 -3.2 91
2017-12-10 05:00:00 9.2 14 Oeste 43 Sudoeste 0 920.1 -2.9 83
2017-12-10 04:00:00 9 21 Oeste 46 Oeste 0 921.1 -2.9 87
2017-12-10 03:00:00 9.1 17 Oeste 41 Sudoeste 0 922.1 -1.9 85
2017-12-10 02:00:00 9 15 Oeste 36 Oeste 0 923 -1.8 89
2017-12-10 01:00:00 8.8 20 Oeste 40 Sudoeste 0 924 -0.6 89
2017-12-10 00:00:00 8.6 22 Sudoeste 39 Oeste 0.2 924 -1.5 88
2017-12-09 23:00:00 8.8 19 Oeste 45 Oeste 0 924.8 -0.6 85
2017-12-09 22:00:00 8.9 22 Oeste 46 Oeste 0 924.6 -0.6 87
2017-12-09 21:00:00 9.6 17 Oeste 38 Sudoeste 0 925.5 0 89
2017-12-09 20:00:00 10 17 Oeste 40 Oeste 0 925.4 -0.3 88
2017-12-09 19:00:00 10 18 Oeste 36 Oeste 0 925.2 -0.8 89
2017-12-09 18:00:00 10.3 15 Oeste 39 Oeste 0 925.5 -0.3 90
2017-12-09 17:00:00 10.6 15 Oeste 43 Oeste 0 925.7 -1.5 89
2017-12-09 16:00:00 11 21 Oeste 46 Oeste 0 926 -2 89
2017-12-09 15:00:00 11.2 20 Oeste 41 Oeste 0 925.8 -2.8 87
2017-12-09 14:00:00 10.8 18 Oeste 48 Sudoeste 0 927.2 -1.4 93
2017-12-09 13:00:00 9.9 12 Oeste 27 Oeste 0.4 928 -0.6 95
2017-12-09 12:00:00 9.8 8 Oeste 25 Oeste 0.2 928.6 -0.1 96
2017-12-09 11:00:00 8.7 8 Oeste 18 Oeste 0 928.6 -0.1 96
2017-12-09 10:00:00 7.5 3 Este 6 Este 0.6 928.6 -0.1 96
2017-12-09 09:00:00 7.5 2 Este 9 Oeste 0.8 928.7 0 96
2017-12-09 08:00:00 7.9 4 Noroeste 10 Noroeste 0.8 928.7 -0.3 96
2017-12-09 07:00:00 7.9 6 Oeste 13 Sudoeste 1.2 928.7 -0.8 96
2017-12-09 06:00:00 7.7 8 Oeste 13 Oeste 0.4 928.7 -0.8 96
2017-12-09 05:00:00 7.5 6 Oeste 13 Oeste 0 929 -0.7 96
2017-12-09 04:00:00 7.3 3 Nordeste 9 Oeste 0 929.5 -0.4 96
2017-12-09 03:00:00 7.8 5 Oeste 12 Oeste 0 929.5 -0.3 96
2017-12-09 02:00:00 7.8 6 Oeste 13 Oeste 0 929.7 -0.3 96
2017-12-09 01:00:00 7.8 6 Noroeste 19 Oeste 0 929.9 -0.2 96
2017-12-09 00:00:00 7.9 10 Oeste 24 Oeste 0.2 929.8 0.2 96
2017-12-08 23:00:00 8 7 Noroeste 19 Oeste 0.2 930 0.5 96
2017-12-08 22:00:00 8.4 8 Oeste 21 Noroeste 0.4 930.1 0.7 96
2017-12-08 21:00:00 9.2 8 Oeste 20 Oeste 0 929.6 0.3 96
2017-12-08 20:00:00 9.3 9 Oeste 19 Noroeste 0.2 929.5 0.6 96
2017-12-08 19:00:00 9.4 10 Oeste 21 Oeste 0.4 929.4 0.7 95
2017-12-08 18:00:00 9.7 9 Oeste 21 Oeste 0.4 929.3 0.3 95
2017-12-08 17:00:00 10.2 8 Oeste 18 Oeste 1.2 928.9 -0.8 95
2017-12-08 16:00:00 10.7 5 Oeste 15 Oeste 1.2 928.7 -1.6 95
2017-12-08 15:00:00 10.7 7 Oeste 18 Oeste 0.8 929 -2 95
2017-12-08 14:00:00 9.6 2 Este 11 Sudoeste 1.4 929.7 -0.9 94
2017-12-08 13:00:00 10.5 6 Oeste 21 Oeste 1 930.3 -0.2 95
2017-12-08 12:00:00 9.9 7 Oeste 27 Oeste 0.2 931 0.8 95
2017-12-08 11:00:00 9.6 7 Oeste 21 Oeste 0.6 930.6 0.5 95
2017-12-08 10:00:00 9.3 9 Oeste 23 Oeste 0.6 930.5 0.3 95
2017-12-08 09:00:00 9.1 8 Oeste 21 Oeste 0.2 930.2 0 96
2017-12-08 08:00:00 8.8 9 Oeste 17 Oeste 0.2 930.1 -0.4 96
2017-12-08 07:00:00 8.6 8 Noroeste 17 Oeste 0 930.2 -0.4 96
2017-12-08 06:00:00 8.5 8 Oeste 14 Sudoeste 0.4 930.2 -0.6 96
2017-12-08 05:00:00 8 6 Oeste 11 Oeste 0 930.5 -0.4 96
2017-12-08 04:00:00 7.6 4 Oeste 12 Oeste 0 930.6 -0.6 96
2017-12-08 03:00:00 7 0 Calma 7 Este 0.2 930.8 -0.3 96
2017-12-08 02:00:00 6.2 0 Calma 5 Este 0.4 930.9 -0.2 96
2017-12-08 01:00:00 5.7 4 Este 10 Norte 0.6 931.2 -0.1 95
2017-12-08 00:00:00 5.4 6 Noroeste 12 Noroeste 0.8 931.1 0.2 95
2017-12-07 23:00:00 5.1 4 Noroeste 6 Noroeste 2.2 931.1 0.9 95
2017-12-07 22:00:00 5 5 Sudeste 13 Sur 1.2 931.3 0.9 95
2017-12-07 21:00:00 5.1 8 Nordeste 15 Nordeste 1.8 930.9 0.4 95
2017-12-07 20:00:00 5 6 Este 13 Norte 0.2 930.2 -0.2 94
2017-12-07 19:00:00 5.2 4 Este 12 Nordeste 2.4 930.4 -0.1 93
2017-12-07 18:00:00 5.7 4 Sudeste 11 Noroeste 1.6 930.5 -0.5 92
2017-12-07 17:00:00 5.8 5 Norte 13 Noroeste 1.4 930.4 -1.3 91
2017-12-07 16:00:00 5.8 4 Norte 12 Noroeste 3 930.5 -1.4 87
2017-12-07 15:00:00 6.8 0 Calma 8 Sur 0.8 931 -1.5 77
2017-12-07 14:00:00 7.8 3 Noroeste 9 Noroeste 0 931.7 -0.4 58
2017-12-07 13:00:00 8 5 Sudeste 10 Sudeste 0 931.9 -0.5 53
2017-12-07 12:00:00 7.8 4 Norte 18 Noroeste 0 932.5 0.4 46
2017-12-07 11:00:00 5.4 5 Este 8 Este 0 932.1 0.5 55
2017-12-07 10:00:00 3.9 3 Norte 10 Noroeste 0 932.4 0.4 60
2017-12-07 09:00:00 2.9 0 Calma 13 Noroeste 0 932.1 0.4 61
2017-12-07 08:00:00 2.5 4 Sudoeste 7 Este 0 931.6 -0.1 61
2017-12-07 07:00:00 3.2 3 Nordeste 13 Noroeste 0 932 0.2 58
2017-12-07 06:00:00 2.4 8 Noroeste 13 Noroeste 0 931.7 -0.3 59
2017-12-07 05:00:00 1.8 5 Noroeste 9 Noroeste 0 931.7 -0.4 61
2017-12-07 04:00:00 1.5 6 Noroeste 11 Oeste 0 931.8 -0.8 62
2017-12-07 03:00:00 1.3 5 Noroeste 15 Noroeste 0 932 -0.6 66
2017-12-07 02:00:00 2.1 6 Noroeste 11 Oeste 0 932.1 -0.4 63
2017-12-07 01:00:00 3.2 6 Noroeste 8 Noroeste 0 932.6 0 62
2017-12-07 00:00:00 3.6 2 Oeste 6 Sur 0 932.6 -0.1 61
2017-12-06 23:00:00 3.4 2 Nordeste 15 Oeste 0 932.5 -0.3 60
2017-12-06 22:00:00 3.2 9 Noroeste 16 Noroeste 0 932.6 -0.2 62
2017-12-06 21:00:00 3.9 4 Nordeste 9 Noroeste 0 932.7 -0.2 58
2017-12-06 20:00:00 3.7 4 Oeste 11 Noroeste 0 932.8 0 60
2017-12-06 19:00:00 3.7 6 Oeste 11 Noroeste 0 932.8 0.2 65
2017-12-06 18:00:00 4.9 3 Noroeste 5 Noroeste 0 932.9 0.1 63
2017-12-06 17:00:00 6.3 0 Calma 9 Sudeste 0 932.8 -0.4 59
2017-12-06 16:00:00 7.1 5 Sudeste 10 Sudeste 0 932.6 -1.2 54
2017-12-06 15:00:00 7.4 4 Este 10 Este 0 932.8 -1.8 54
2017-12-06 14:00:00 8.2 4 Este 11 Sur 0 933.2 -1.5 52
2017-12-06 13:00:00 6.6 3 Nordeste 10 Este 0 933.8 -0.8 53
2017-12-06 12:00:00 5.4 4 Este 7 Este 0 934.6 0.2 57
2017-12-06 11:00:00 2.7 2 Sudeste 7 Noroeste 0 934.7 0.4 65
2017-12-06 10:00:00 -0.1 5 Noroeste 10 Noroeste 0 934.6 0.3 74
2017-12-06 09:00:00 -3 5 Noroeste 13 Noroeste 0 934.4 -0.1 80
2017-12-06 08:00:00 -3.3 6 Oeste 12 Noroeste 0 934.3 -0.4 81
2017-12-06 07:00:00 -2.9 6 Noroeste 10 Oeste 0 934.3 -0.6 80
2017-12-06 06:00:00 -2.9 7 Noroeste 11 Noroeste 0 934.5 -0.3 81
2017-12-06 05:00:00 -2.7 6 Noroeste 14 Noroeste 0 934.7 -0.5 81
2017-12-06 04:00:00 -2 6 Noroeste 10 Noroeste 0 934.9 -0.6 79
2017-12-06 03:00:00 -1.8 8 Noroeste 14 Noroeste 0 934.8 -0.7 80
2017-12-06 02:00:00 -1.9 8 Noroeste 13 Noroeste 0 935.2 -0.3 81
2017-12-06 01:00:00 -1.2 7 Noroeste 16 Noroeste 0 935.5 -0.3 79
2017-12-06 00:00:00 -1.7 8 Noroeste 15 Noroeste 0 935.5 -0.2 85
2017-12-05 23:00:00 -1 8 Noroeste 14 Noroeste 0 935.5 0.1 83
2017-12-05 22:00:00 0.4 7 Noroeste 13 Noroeste 0 935.8 0.7 79
2017-12-05 21:00:00 0.5 8 Noroeste 13 Noroeste 0 935.7 0.6 80
2017-12-05 20:00:00 1.6 7 Noroeste 12 Noroeste 0 935.4 0.3 77
2017-12-05 19:00:00 3.5 5 Noroeste 8 Noroeste 0 935.1 0.1 72
2017-12-05 18:00:00 5.1 0 Calma 6 Sudeste 0 935.1 -0.4 67
2017-12-05 17:00:00 6.2 4 Sudeste 6 Sudeste 0 935.1 -0.7 63
2017-12-05 16:00:00 7 5 Sudeste 11 Sudeste 0 935 -1.4 60
2017-12-05 15:00:00 7.8 5 Sudeste 13 Sudeste 0 935.5 -1.5 57
2017-12-05 14:00:00 7.4 4 Este 12 Sudeste 0 935.8 -1.2 59
2017-12-05 13:00:00 6.5 4 Este 11 Nordeste 0 936.4 -0.4 61
2017-12-05 12:00:00 5 7 Sudeste 13 Sudeste 0 937 0.5 68
2017-12-05 11:00:00 2.3 4 Nordeste 9 Noroeste 0 937 0.8 80
2017-12-05 10:00:00 -0.8 7 Noroeste 12 Noroeste 0 936.8 0.8 88
2017-12-05 09:00:00 -3.1 7 Noroeste 11 Noroeste 0 936.5 0.5 93
2017-12-05 08:00:00 -3.4 5 Noroeste 11 Noroeste 0 936.2 0 93
2017-12-05 07:00:00 -3.3 6 Noroeste 10 Nordeste 0 936 -0.4 92
2017-12-05 06:00:00 -3 5 Noroeste 10 Noroeste 0 936 -0.5 93
2017-12-05 05:00:00 -2.7 4 Noroeste 12 Noroeste 0 936.2 -0.3 92
2017-12-05 04:00:00 -2.9 8 Noroeste 11 Norte 0 936.4 -0.1 92
2017-12-05 03:00:00 -2.6 6 Noroeste 11 Norte 0 936.5 -0.1 91
2017-12-05 02:00:00 -2.2 8 Noroeste 11 Noroeste 0 936.5 0.1 91
2017-12-05 01:00:00 -1.7 5 Norte 13 Norte 0 936.5 0.3 89
2017-12-05 00:00:00 -1.1 6 Noroeste 10 Norte 0 936.6 0.3 87
2017-12-04 23:00:00 -1 6 Norte 12 Noroeste 0 936.4 0.2 87
2017-12-04 22:00:00 0.1 4 Noroeste 12 Oeste 0 936.2 0.3 84
2017-12-04 21:00:00 0.7 8 Noroeste 14 Oeste 0 936.3 0.5 81
2017-12-04 20:00:00 1.9 7 Noroeste 10 Noroeste 0 936.2 0.6 76
2017-12-04 19:00:00 3.8 4 Sudoeste 5 Noroeste 0 935.9 0.5 66
2017-12-04 18:00:00 4.6 4 Oeste 6 Sudeste 0 935.8 0.3 64
2017-12-04 17:00:00 5.9 4 Sudeste 10 Nordeste 0 935.6 -0.2 59
2017-12-04 16:00:00 6.8 4 Nordeste 11 Nordeste 0 935.4 -1.1 56
2017-12-04 15:00:00 7.3 5 Nordeste 12 Este 0 935.5 -1.4 56
2017-12-04 14:00:00 7.1 5 Este 13 Este 0 935.8 -0.9 55
2017-12-04 13:00:00 6.4 5 Este 14 Sudeste 0 936.5 0.1 56
2017-12-04 12:00:00 4.3 6 Nordeste 11 Sudeste 0 936.9 1.2 65
2017-12-04 11:00:00 2 2 Sur 6 Noroeste 0 936.7 1.6 77
2017-12-04 10:00:00 -0.7 3 Noroeste 6 Noroeste 0 936.4 1.7 88
2017-12-04 09:00:00 -3.5 5 Noroeste 7 Noroeste 0 935.7 1.4 92
2017-12-04 08:00:00 -3.8 5 Noroeste 14 Noroeste 0 935.1 0.8 92
2017-12-04 07:00:00 -3.5 10 Noroeste 14 Noroeste 0 934.7 0.3 91
2017-12-04 06:00:00 -3 4 Noroeste 11 Noroeste 0 934.3 -0.2 91
2017-12-04 05:00:00 -2.8 8 Noroeste 13 Noroeste 0 934.3 -0.3 91
2017-12-04 04:00:00 -2.8 7 Noroeste 14 Noroeste 0 934.4 -0.1 91
2017-12-04 03:00:00 -2.5 6 Noroeste 12 Noroeste 0 934.5 0.4 91
2017-12-04 02:00:00 -2.3 8 Noroeste 12 Noroeste 0 934.6 0.8 89
2017-12-04 01:00:00 -1.9 7 Noroeste 16 Noroeste 0 934.5 1 89
2017-12-04 00:00:00 -2 9 Noroeste 16 Noroeste 0 934.1 0.8 89
2017-12-03 23:00:00 -1.3 8 Noroeste 16 Oeste 0 933.8 0.8 87
2017-12-03 22:00:00 -0.8 7 Noroeste 13 Noroeste 0 933.5 0.8 84
2017-12-03 21:00:00 -0.1 8 Noroeste 13 Noroeste 0 933.3 0.9 82
2017-12-03 20:00:00 0.6 8 Noroeste 13 Noroeste 0 933 0.7 78
2017-12-03 19:00:00 1.9 6 Noroeste 9 Noroeste 0 932.7 0.6 73
2017-12-03 18:00:00 3.7 3 Oeste 6 Sudeste 0 932.4 0.3 68
2017-12-03 17:00:00 5.1 5 Sudeste 10 Sudeste 0 932.3 0 60
2017-12-03 16:00:00 5.8 6 Sudeste 15 Sudeste 0 932.1 -0.4 56
2017-12-03 15:00:00 6.8 6 Sudeste 12 Este 0 932.1 -0.6 54
2017-12-03 14:00:00 6.3 7 Este 15 Este 0 932.3 -0.5 57
2017-12-03 13:00:00 6.2 6 Este 14 Este 0 932.5 0.1 62
2017-12-03 12:00:00 5.4 5 Este 8 Este 0 932.7 0.9 67
2017-12-03 11:00:00 2.4 3 Noroeste 9 Noroeste 0 932.8 1.4 80
2017-12-03 10:00:00 -0.4 6 Noroeste 12 Noroeste 0 932.4 1.4 88
2017-12-03 09:00:00 -2.7 5 Oeste 11 Noroeste 0 931.8 1.3 93
2017-12-03 08:00:00 -3 6 Noroeste 13 Noroeste 0 931.4 0.8 93
2017-12-03 07:00:00 -2.7 2 Noroeste 10 Noroeste 0 931 0.5 93
2017-12-03 06:00:00 -2.5 4 Oeste 10 Noroeste 0 930.5 0.3 93
2017-12-03 05:00:00 -2.6 6 Noroeste 10 Noroeste 0 930.6 0.5 93
2017-12-03 04:00:00 -2.4 7 Noroeste 12 Noroeste 0 930.5 0.4 92
2017-12-03 03:00:00 -2 8 Noroeste 11 Noroeste 0 930.2 0.3 91
2017-12-03 02:00:00 -1.2 6 Oeste 15 Noroeste 0 930.1 0.4 89
2017-12-03 01:00:00 -0.9 8 Oeste 13 Noroeste 0 930.1 0.7 89
2017-12-03 00:00:00 -0.3 6 Oeste 11 Oeste 0 929.9 0.5 87
2017-12-02 23:00:00 0 4 Oeste 12 Noroeste 0 929.7 0.5 84
2017-12-02 22:00:00 0.9 6 Noroeste 18 Noroeste 0 929.4 0.4 82
2017-12-02 21:00:00 0.9 8 Noroeste 18 Oeste 0 929.4 0.8 80
2017-12-02 20:00:00 1.6 8 Noroeste 14 Noroeste 0 929.2 0.8 80
2017-12-02 19:00:00 1.5 7 Oeste 14 Oeste 0 929 0.8 86
2017-12-02 18:00:00 2.9 7 Oeste 17 Noroeste 0 928.6 0.3 80
2017-12-02 17:00:00 4 8 Noroeste 19 Noroeste 0 928.4 -0.4 66
2017-12-02 16:00:00 4.5 11 Noroeste 24 Norte 0 928.2 -0.9 68
2017-12-02 15:00:00 5.4 13 Noroeste 24 Noroeste 0 928.3 -1.2 60
2017-12-02 14:00:00 6 9 Norte 27 Nordeste 0 928.8 -0.8 61
2017-12-02 13:00:00 6.3 9 Norte 22 Noroeste 0 929.1 0 61
2017-12-02 12:00:00 5.4 7 Noroeste 17 Noroeste 0 929.5 0.9 68
2017-12-02 11:00:00 3.3 5 Noroeste 17 Oeste 0 929.6 1.1 79
2017-12-02 10:00:00 0.1 10 Oeste 20 Oeste 0 929.1 0.7 88
2017-12-02 09:00:00 -0.8 7 Noroeste 17 Oeste 0 928.6 0.5 89
2017-12-02 08:00:00 -1.1 7 Noroeste 21 Oeste 0 928.5 0.4 91
2017-12-02 07:00:00 -1.5 9 Oeste 16 Oeste 0 928.4 0.2 92
2017-12-02 06:00:00 -1.6 8 Oeste 17 Oeste 0 928.1 -0.1 92
2017-12-02 05:00:00 -1.2 8 Oeste 16 Oeste 0 928.1 -0.1 91
2017-12-02 04:00:00 -1.4 7 Oeste 17 Oeste 0 928.2 0.1 90
2017-12-02 03:00:00 -0.8 7 Noroeste 18 Oeste 0 928.2 0.1 87
2017-12-02 02:00:00 0.1 9 Noroeste 15 Oeste 0 928.2 0.3 84
2017-12-02 01:00:00 -0.8 8 Noroeste 18 Oeste 0 928.1 0.5 83
2017-12-02 00:00:00 0.4 6 Oeste 17 Oeste 0 928.1 0.9 75
2017-12-01 23:00:00 0.4 6 Norte 19 Oeste 0 927.9 1.5 72
2017-12-01 22:00:00 -0.3 5 Oeste 15 Oeste 0 927.6 1.7 72
2017-12-01 21:00:00 0.2 4 Oeste 21 Oeste 0 927.2 1.9 72
2017-12-01 20:00:00 0.6 9 Noroeste 21 Oeste 0 926.4 1.5 72
2017-12-01 19:00:00 1.1 6 Noroeste 18 Noroeste 0 925.9 1.8 80
2017-12-01 18:00:00 2 8 Noroeste 18 Norte 0 925.3 1.2 77
2017-12-01 17:00:00 3.5 3 Oeste 23 Norte 0 924.9 0.9 71
2017-12-01 16:00:00 4.3 6 Norte 27 Noroeste 0 924.1 0 71
2017-12-01 15:00:00 4.3 9 Norte 33 Noroeste 0 924.1 -0.1 81
2017-12-01 14:00:00 5 14 Noroeste 44 Norte 0.2 924 -0.1 85
2017-12-01 13:00:00 4.3 18 Noroeste 44 Noroeste 0 924.1 0.1 91
2017-12-01 12:00:00 3.9 17 Noroeste 42 Noroeste 0 924.2 0.3 95
2017-12-01 11:00:00 3.4 17 Oeste 44 Oeste 0.4 924.1 0.1 95
2017-12-01 10:00:00 2.9 17 Oeste 40 Noroeste 0.2 924 -0.2 95
2017-12-01 09:00:00 2.8 15 Oeste 35 Oeste 0.6 923.9 -0.6 95
2017-12-01 08:00:00 2.5 12 Oeste 33 Oeste 0.2 924 -0.8 95
2017-12-01 07:00:00 2.3 12 Oeste 26 Oeste 0.8 924.2 -1.2 95
2017-12-01 06:00:00 2 13 Oeste 28 Oeste 0.2 924.5 -1 94
2017-12-01 05:00:00 1.7 10 Oeste 23 Oeste 0.4 924.8 -0.9 94
2017-12-01 04:00:00 1.7 9 Oeste 22 Oeste 0 925.4 -0.4 93
2017-12-01 03:00:00 0.9 9 Oeste 16 Oeste 0 925.5 -0.4 93
2017-12-01 02:00:00 0 6 Oeste 14 Oeste 0 925.7 -0.4 92
2017-12-01 01:00:00 0.3 5 Oeste 15 Oeste 0 925.8 0 91
2017-12-01 00:00:00 0.7 6 Oeste 14 Noroeste 0 925.9 0.2 90
2017-11-30 23:00:00 1.1 3 Oeste 11 Oeste 0 926.1 0.9 88
2017-11-30 22:00:00 1.9 5 Oeste 15 Oeste 0 925.8 1.1 85
2017-11-30 21:00:00 2.6 6 Oeste 17 Noroeste 0 925.7 1.3 85
2017-11-30 20:00:00 2.5 5 Oeste 13 Oeste 0 925.2 1.2 85
2017-11-30 19:00:00 1.9 4 Oeste 14 Oeste 0 924.7 1 87
2017-11-30 18:00:00 2.2 6 Oeste 17 Oeste 0 924.4 1 81
2017-11-30 17:00:00 3.6 7 Oeste 23 Oeste 0 924 0.5 75
2017-11-30 16:00:00 5.3 13 Oeste 24 Oeste 0 923.7 0.3 68
2017-11-30 15:00:00 5.9 9 Noroeste 22 Norte 0 923.4 -0.1 64
2017-11-30 14:00:00 6.7 12 Noroeste 24 Noroeste 0 923.5 0.4 55
2017-11-30 13:00:00 6.7 8 Norte 22 Norte 0 923.4 0.9 59
2017-11-30 12:00:00 5.7 6 Norte 13 Noroeste 0 923.5 1.8 61
2017-11-30 11:00:00 3.1 4 Oeste 13 Oeste 0 923.1 2 72
2017-11-30 10:00:00 -0.4 4 Oeste 15 Noroeste 0 922.5 2.1 84
2017-11-30 09:00:00 -3 11 Oeste 19 Oeste 0 921.7 1.4 89
2017-11-30 08:00:00 -3.4 2 Sudoeste 14 Noroeste 0 921.1 1.3 90
2017-11-30 07:00:00 -3.7 8 Noroeste 13 Noroeste 0 920.4 0.5 91
2017-11-30 06:00:00 -3.3 2 Noroeste 13 Oeste 0 920.3 0.7 89
2017-11-30 05:00:00 -3 9 Noroeste 13 Noroeste 0 919.8 0.7 91
2017-11-30 04:00:00 -2.5 6 Oeste 14 Oeste 0 919.9 0.7 91
2017-11-30 03:00:00 -2.5 7 Noroeste 15 Noroeste 0 919.6 0.6 90
2017-11-30 02:00:00 -2.3 8 Oeste 18 Noroeste 0 919.1 0.3 92
2017-11-30 01:00:00 -1.8 11 Oeste 18 Oeste 0 919.2 1 90
2017-11-30 00:00:00 -0.6 7 Oeste 16 Oeste 0 919 1.2 86
2017-11-29 23:00:00 -0.1 5 Oeste 16 Noroeste 0 918.8 1.4 83
2017-11-29 22:00:00 0.2 9 Noroeste 17 Noroeste 0 918.2 1.4 86
2017-11-29 21:00:00 0.1 9 Oeste 18 Oeste 0 917.8 1.5 88
2017-11-29 20:00:00 0.9 6 Oeste 22 Noroeste 0 917.4 1.6 85
2017-11-29 19:00:00 1.9 13 Noroeste 23 Noroeste 0 916.8 1.3 81
2017-11-29 18:00:00 2.5 9 Oeste 18 Noroeste 0 916.3 0.9 81
2017-11-29 17:00:00 4.2 11 Oeste 24 Oeste 0 915.8 0 75
2017-11-29 16:00:00 5.2 8 Noroeste 22 Noroeste 0 915.5 -0.6 67
2017-11-29 15:00:00 5.8 5 Norte 20 Nordeste 0 915.4 -1 60
2017-11-29 14:00:00 6 5 Oeste 17 Oeste 0 915.8 -0.4 72
2017-11-29 13:00:00 5.7 9 Oeste 19 Oeste 0 916.1 0.2 75
2017-11-29 12:00:00 4.3 4 Sudoeste 14 Sudoeste 0 916.4 0.8 83
2017-11-29 11:00:00 3.9 10 Oeste 21 Oeste 0 916.2 1 88
2017-11-29 10:00:00 4.1 10 Oeste 19 Oeste 0 915.9 0.9 89
2017-11-29 09:00:00 1.2 5 Oeste 12 Oeste 0 915.6 1 92
2017-11-29 08:00:00 0.3 7 Oeste 15 Oeste 0 915.2 0.5 93
2017-11-29 07:00:00 0.9 9 Oeste 20 Oeste 0 915 0.1 93
2017-11-29 06:00:00 1.6 10 Oeste 18 Oeste 0 914.6 -0.6 93
2017-11-29 05:00:00 1.8 8 Oeste 17 Oeste 0 914.7 -0.9 93
2017-11-29 04:00:00 2.3 9 Oeste 19 Oeste 0 914.9 -1.3 93
2017-11-29 03:00:00 2.6 10 Oeste 17 Noroeste 0 915.2 -1.4 93
2017-11-29 02:00:00 3.3 8 Oeste 17 Sudoeste 0 915.6 -1.3 94
2017-11-29 01:00:00 2.9 9 Oeste 15 Oeste 0 916.2 -0.9 91
2017-11-29 00:00:00 3.5 9 Oeste 19 Noroeste 0 916.6 -0.9 88
2017-11-28 23:00:00 2.7 7 Oeste 18 Noroeste 0 916.9 -0.8 86
2017-11-28 22:00:00 1.7 9 Noroeste 17 Oeste 0 917.1 -0.8 84
2017-11-28 21:00:00 2 6 Noroeste 15 Oeste 0 917.5 -0.4 81
2017-11-28 20:00:00 2.7 8 Oeste 20 Oeste 0 917.7 -0.7 78
2017-11-28 19:00:00 4 11 Oeste 20 Oeste 0 917.9 -0.5 75
2017-11-28 18:00:00 5.2 10 Oeste 20 Sudoeste 0 917.9 -1 74
2017-11-28 17:00:00 7.1 10 Oeste 23 Oeste 0 918.4 -1.2 67
2017-11-28 16:00:00 8.7 9 Noroeste 18 Oeste 0 918.4 -2.4 62
2017-11-28 15:00:00 9.7 6 Sudeste 17 Este 0 918.9 -3 52
2017-11-28 14:00:00 10.1 5 Sudeste 13 Sudeste 0 919.6 -2.8 48
2017-11-28 13:00:00 9.6 7 Este 12 Sudeste 0 920.8 -2 49
2017-11-28 12:00:00 8.4 4 Este 8 Este 0 921.9 -0.9 44
2017-11-28 11:00:00 5.8 2 Este 11 Noroeste 0 922.4 -0.6 54
2017-11-28 10:00:00 2.4 5 Noroeste 13 Noroeste 0 922.8 -0.5 66
2017-11-28 09:00:00 -1 5 Noroeste 10 Noroeste 0 922.8 -0.6 75
2017-11-28 08:00:00 -1.4 5 Noroeste 10 Noroeste 0 923 -0.7 71
2017-11-28 07:00:00 -0.7 3 Oeste 8 Noroeste 0 923.3 -1.1 67
2017-11-28 06:00:00 -0.7 4 Oeste 14 Oeste 0 923.4 -1.1 65
2017-11-28 05:00:00 -1.3 8 Noroeste 14 Noroeste 0 923.7 -1.4 69
2017-11-28 04:00:00 -1.5 8 Noroeste 15 Noroeste 0 924.4 -1.3 72
2017-11-28 03:00:00 -0.7 8 Noroeste 15 Oeste 0 924.5 -1.7 69
2017-11-28 02:00:00 -0.3 8 Noroeste 17 Noroeste 0 925.1 -1.3 66
2017-11-28 01:00:00 0 8 Noroeste 14 Noroeste 0 925.7 -0.8 65
2017-11-28 00:00:00 0.5 8 Noroeste 15 Oeste 0 926.2 -0.6 66
2017-11-27 23:00:00 0.6 8 Noroeste 19 Noroeste 0 926.4 -0.6 67
2017-11-27 22:00:00 1 10 Noroeste 15 Noroeste 0 926.5 -0.7 71
2017-11-27 21:00:00 1.6 9 Noroeste 15 Noroeste 0 926.8 -0.5 70
2017-11-27 20:00:00 2.6 7 Noroeste 12 Noroeste 0 927 -0.2 70
2017-11-27 19:00:00 5 5 Noroeste 8 Noroeste 0 927.2 0 66
2017-11-27 18:00:00 6.9 0 Calma 4 Sudoeste 0 927.3 -0.3 57
2017-11-27 17:00:00 8.4 3 Noroeste 8 Noroeste 0 927.2 -1.3 48
2017-11-27 16:00:00 9.2 2 Sudeste 11 Este 0 927.2 -2 49
2017-11-27 15:00:00 9.4 5 Sudeste 11 Este 0 927.6 -2.5 48
2017-11-27 14:00:00 9 5 Sudeste 12 Sudeste 0 928.5 -1.8 51
2017-11-27 13:00:00 7.7 4 Nordeste 15 Sudeste 0 929.2 -1.3 56
2017-11-27 12:00:00 6.1 6 Este 15 Sudeste 0 930.1 -0.3 54
2017-11-27 11:00:00 3.5 4 Nordeste 12 Noroeste 0 930.3 0 67
2017-11-27 10:00:00 0.5 8 Noroeste 11 Noroeste 0 930.5 0.2 78
2017-11-27 09:00:00 -2.3 6 Noroeste 12 Noroeste 0 930.4 -0.1 84
2017-11-27 08:00:00 -2.5 9 Oeste 14 Noroeste 0 930.3 -0.1 82
2017-11-27 07:00:00 -2.9 9 Noroeste 15 Noroeste 0 930.3 -0.4 87
2017-11-27 06:00:00 -2.2 4 Oeste 10 Noroeste 0 930.5 -0.5 87
2017-11-27 05:00:00 -2.4 8 Noroeste 11 Noroeste 0 930.4 -0.7 87
2017-11-27 04:00:00 -1.8 6 Noroeste 10 Noroeste 0 930.7 -0.5 89
2017-11-27 03:00:00 -1.5 8 Noroeste 12 Noroeste 0 931 -0.4 88
2017-11-27 02:00:00 -1 6 Norte 11 Noroeste 0 931.1 -0.4 89
2017-11-27 01:00:00 -0.7 5 Oeste 14 Noroeste 0 931.2 -0.3 88
2017-11-27 00:00:00 0.2 6 Noroeste 12 Noroeste 0 931.4 -0.1 87
2017-11-26 23:00:00 0.1 9 Noroeste 12 Noroeste 0 931.5 -0.1 87
2017-11-26 22:00:00 2.1 3 Sur 7 Nordeste 0 931.5 0 81
2017-11-26 21:00:00 2.2 4 Sur 12 Norte 0 931.5 0 80
2017-11-26 20:00:00 3.1 3 Norte 9 Noroeste 0 931.6 0.1 82
2017-11-26 19:00:00 4.4 4 Sudoeste 9 Nordeste 0 931.5 0.5 75
2017-11-26 18:00:00 6.1 3 Sur 9 Nordeste 0 931.5 0.1 68
2017-11-26 17:00:00 7.7 5 Este 10 Este 0 931.5 -0.2 61
2017-11-26 16:00:00 8.5 3 Nordeste 14 Este 0 931 -1.4 60
2017-11-26 15:00:00 8.9 7 Nordeste 16 Nordeste 0 931.4 -1.5 60
2017-11-26 14:00:00 8.3 8 Sudeste 21 Este 0 931.7 -1.2 63
2017-11-26 13:00:00 6.8 11 Este 21 Sudeste 0 932.4 -0.3 71
2017-11-26 12:00:00 5.6 11 Este 20 Nordeste 0 932.9 1 76
2017-11-26 11:00:00 3.5 11 Este 20 Sudeste 0 932.9 1.7 86
2017-11-26 10:00:00 2.4 5 Este 10 Este 0 932.7 1.8 95
2017-11-26 09:00:00 0.8 3 Sudeste 7 Sudeste 0 931.9 1.3 95
2017-11-26 08:00:00 0.8 3 Sudeste 7 Sudeste 0 931.2 0.8 95
2017-11-26 07:00:00 1.4 3 Este 9 Norte 0 930.9 0.3 95
2017-11-26 06:00:00 2 3 Norte 7 Noroeste 0 930.6 0.1 95
2017-11-26 05:00:00 2.5 2 Este 5 Sudeste 0 930.4 0.3 95
2017-11-26 04:00:00 2.2 4 Noroeste 10 Noroeste 0 930.6 0.4 95
2017-11-26 03:00:00 1.2 7 Noroeste 14 Noroeste 0 930.5 0.8 95
2017-11-26 02:00:00 0.8 8 Noroeste 12 Noroeste 0 930.1 0.4 94
2017-11-26 01:00:00 1.2 7 Noroeste 10 Noroeste 0 930.2 1.1 94
2017-11-26 00:00:00 1.7 8 Noroeste 12 Noroeste 0 929.7 0.9 92
2017-11-25 23:00:00 2.5 4 Noroeste 10 Noroeste 0 929.7 1.5 92
2017-11-25 22:00:00 3.2 4 Oeste 13 Oeste 0 929.1 1.5 92
2017-11-25 21:00:00 3.7 5 Sudoeste 17 Noroeste 0 928.8 1.5 90
2017-11-25 20:00:00 4.4 9 Noroeste 18 Oeste 0 928.2 1.4 88
2017-11-25 19:00:00 5.6 8 Oeste 20 Oeste 0 927.6 1.3 84
2017-11-25 18:00:00 6.9 9 Oeste 20 Oeste 0 927.3 1 82
2017-11-25 17:00:00 8.8 8 Oeste 16 Oeste 0 926.8 0 77
2017-11-25 16:00:00 10 5 Sudeste 17 Nordeste 0 926.3 -0.3 66
2017-11-25 15:00:00 10.6 8 Este 18 Sudeste 0 926.3 -0.9 65
2017-11-25 14:00:00 10.6 10 Sudeste 17 Sudeste 0 926.8 0.1 67
2017-11-25 13:00:00 10.4 8 Este 16 Sudeste 0 926.6 0.5 72
2017-11-25 12:00:00 9.5 9 Este 18 Este 0 927.2 1.8 77
2017-11-25 11:00:00 8.6 9 Este 18 Este 0 926.7 2.2 84
2017-11-25 10:00:00 7 3 Noroeste 12 Oeste 0 926.1 2.1 93
2017-11-25 09:00:00 6.3 6 Oeste 14 Oeste 0 925.4 1.8 93
2017-11-25 08:00:00 6.3 8 Oeste 17 Noroeste 0 924.5 1.6 94
2017-11-25 07:00:00 6.3 5 Oeste 16 Oeste 0 924 1.1 92
2017-11-25 06:00:00 7.4 8 Oeste 18 Oeste 0 923.6 0.9 94
2017-11-25 05:00:00 7.6 6 Oeste 16 Oeste 0 922.9 0.1 94
2017-11-25 04:00:00 7.9 5 Oeste 17 Oeste 0.2 922.9 0.4 94
2017-11-25 03:00:00 8.2 5 Noroeste 13 Oeste 1.2 922.7 1.1 93
2017-11-25 02:00:00 8.7 6 Oeste 20 Oeste 0.6 922.8 1.8 93
2017-11-25 01:00:00 9.1 9 Oeste 25 Noroeste 0.8 922.5 2.4 94
2017-11-25 00:00:00 9.3 7 Oeste 18 Oeste 1 921.6 1.5 94
2017-11-24 23:00:00 9.5 11 Oeste 31 Sudoeste 3.2 921 1.3 94
2017-11-24 22:00:00 10.2 8 Oeste 23 Sudoeste 3.4 920.1 0.5 94
2017-11-24 21:00:00 10.2 6 Oeste 13 Oeste 5.6 920.1 0.2 94
2017-11-24 20:00:00 10.4 5 Noroeste 8 Nordeste 1.2 919.7 0 95
2017-11-24 19:00:00 10.4 2 Sur 8 Nordeste 2 919.6 -0.2 95
2017-11-24 18:00:00 10.5 4 Sudeste 14 Sudeste 0.2 919.9 -0.1 95
2017-11-24 17:00:00 11 6 Oeste 16 Oeste 0.4 919.7 -0.8 93
2017-11-24 16:00:00 11 3 Este 8 Sudeste 3.2 919.8 -0.8 94
2017-11-24 15:00:00 11.6 7 Este 12 Este 0.2 920 -1 92
2017-11-24 14:00:00 11.8 5 Oeste 13 Norte 0.8 920.5 -0.4 93
2017-11-24 13:00:00 11.7 3 Noroeste 5 Noroeste 1.4 920.6 0.2 93
2017-11-24 12:00:00 11.2 2 Este 5 Sur 0.2 921 1.1 93
2017-11-24 11:00:00 10.9 0 Calma 6 Noroeste 0 920.9 1.3 93
2017-11-24 10:00:00 10.3 0 Calma 8 Noroeste 0 920.4 1.2 94
2017-11-24 09:00:00 9.7 4 Norte 12 Norte 0 919.9 0.9 94
2017-11-24 08:00:00 9.4 5 Norte 10 Norte 0.6 919.6 1.1 94
2017-11-24 07:00:00 9.3 4 Norte 8 Norte 2.2 919.2 0.9 94
2017-11-24 06:00:00 9.2 4 Norte 13 Noroeste 0.8 919 0.8 94
2017-11-24 05:00:00 9.2 6 Noroeste 18 Noroeste 1.4 918.5 0.7 93
2017-11-24 04:00:00 9.2 5 Norte 15 Noroeste 0.4 918.3 -0.2 92
2017-11-24 03:00:00 9.4 6 Norte 22 Sudeste 0.8 918.2 -1.3 90
2017-11-24 02:00:00 8.9 3 Este 19 Este 0 917.8 -2 91
2017-11-24 01:00:00 9.5 14 Este 23 Nordeste 1 918.5 -0.8 90
2017-11-24 00:00:00 10.4 8 Sudeste 16 Este 1.4 919.5 0 88
2017-11-23 23:00:00 11.6 8 Norte 15 Norte 0 919.8 0.7 75
2017-11-23 22:00:00 11.8 6 Noroeste 16 Nordeste 0 919.3 0.5 74
2017-11-23 21:00:00 11.5 3 Nordeste 18 Nordeste 0 919.5 1.2 75
2017-11-23 20:00:00 11.3 5 Noroeste 14 Norte 0 919.1 1 76
2017-11-23 19:00:00 12.4 8 Este 26 Oeste 0 918.8 0.8 66
2017-11-23 18:00:00 13.1 11 Sur 46 Sudoeste 0 918.3 0.5 71
2017-11-23 17:00:00 13.8 15 Sudoeste 41 Sudoeste 0 918.1 0.4 68
2017-11-23 16:00:00 14.3 7 Este 20 Sudeste 0 918 0.1 73
2017-11-23 15:00:00 16.4 11 Este 37 Sudoeste 0 917.8 -0.1 62
2017-11-23 14:00:00 17 16 Sudoeste 54 Sur 0 917.7 0.1 52
2017-11-23 13:00:00 16.1 8 Norte 21 Nordeste 0 917.9 0.4 56
2017-11-23 12:00:00 15.6 5 Este 24 Norte 0 917.9 1.3 61
2017-11-23 11:00:00 12.8 6 Nordeste 18 Nordeste 0 917.6 1.6 76
2017-11-23 10:00:00 11.7 6 Este 14 Sudeste 0 917.5 2 78
2017-11-23 09:00:00 9 2 Sur 10 Sudeste 0 916.6 2.1 85
2017-11-23 08:00:00 9.7 3 Sudoeste 13 Nordeste 0 916 2.4 84
2017-11-23 07:00:00 10.2 5 Sudeste 22 Sudeste 0 915.5 2.5 86
2017-11-23 06:00:00 9.3 8 Nordeste 20 Nordeste 0.2 914.5 1.7 88
2017-11-23 05:00:00 10.4 5 Norte 33 Sudoeste 0.2 913.6 0.6 77
2017-11-23 04:00:00 11.7 17 Sudoeste 47 Sur 0 913 -0.2 75
2017-11-23 03:00:00 11.4 12 Sur 39 Sur 1 912.8 -0.3 76
2017-11-23 02:00:00 11.2 7 Sudeste 36 Sudoeste 0.6 913 -0.4 67
2017-11-23 01:00:00 12.6 14 Sudoeste 50 Sudoeste 0 913.2 0.2 57
2017-11-23 00:00:00 12.4 15 Sudoeste 40 Sudoeste 0 913.1 -0.5 57
2017-11-22 23:00:00 11.9 11 Sudoeste 33 Sudoeste 0 913.4 0.5 60
2017-11-22 22:00:00 11.9 8 Sur 39 Sur 0 913 0.7 52
2017-11-22 21:00:00 12.5 13 Sudoeste 39 Sudoeste 0 913.6 1.6 44
2017-11-22 20:00:00 11.7 7 Sur 38 Sur 0 912.9 0.8 43
2017-11-22 19:00:00 13.5 15 Sur 34 Sur 0 912.3 -0.5 40
2017-11-22 18:00:00 13.8 10 Sudeste 41 Sur 0 912 -1.9 40
2017-11-22 17:00:00 14.2 13 Sur 59 Sudoeste 0 912.1 -2.1 41
2017-11-22 16:00:00 15.7 15 Sur 52 Sudoeste 0 912.8 -2.2 37
2017-11-22 15:00:00 16.7 17 Sudoeste 57 Sudoeste 0 913.9 -1.7 34
2017-11-22 14:00:00 17 19 Sudoeste 58 Sudoeste 0 914.2 -2.3 34
2017-11-22 13:00:00 16 16 Sudoeste 57 Sudoeste 0 915 -1.2 34
2017-11-22 12:00:00 15.7 21 Sudoeste 48 Sur 0 915.6 -0.8 34
2017-11-22 11:00:00 16 17 Sudoeste 40 Oeste 0 916.5 0 35
2017-11-22 10:00:00 8.1 9 Norte 14 Noroeste 0 916.2 -0.8 57
2017-11-22 09:00:00 5.2 4 Noroeste 23 Norte 0 916.4 -0.9 62
2017-11-22 08:00:00 4.6 4 Sudeste 15 Este 0 916.5 -1.1 62
2017-11-22 07:00:00 5.4 7 Nordeste 13 Nordeste 0 917 -1.5 60
2017-11-22 06:00:00 5.1 5 Norte 14 Nordeste 0 917.3 -1.2 60
2017-11-22 05:00:00 5.5 5 Norte 10 Norte 0 917.6 -1.5 58
2017-11-22 04:00:00 5.8 4 Noroeste 10 Norte 0 918.5 -1.5 57
2017-11-22 03:00:00 6.1 4 Noroeste 15 Nordeste 0 918.5 -1.7 55
2017-11-22 02:00:00 6.4 4 Este 17 Sudoeste 0 919.1 -1.4 56
2017-11-22 01:00:00 6.9 9 Noroeste 21 Sur 0 920 -0.9 50
2017-11-22 00:00:00 9.8 6 Norte 42 Nordeste 0 920.2 -1 43
2017-11-21 23:00:00 8.3 9 Nordeste 21 Nordeste 0 920.5 -0.9 47
2017-11-21 22:00:00 9.5 9 Este 22 Este 0 920.9 -0.6 43
2017-11-21 21:00:00 8.4 8 Sur 21 Sudoeste 0 921.2 -0.3 46
2017-11-21 20:00:00 8.8 6 Este 17 Este 0 921.4 -0.5 44
2017-11-21 19:00:00 9.2 5 Sudeste 17 Este 0 921.5 -0.6 41
2017-11-21 18:00:00 11.5 7 Este 18 Este 0 921.5 -1.2 33
2017-11-21 17:00:00 13.8 11 Este 18 Este 0 921.9 -1.5 29
2017-11-21 16:00:00 13.5 4 Este 12 Sudeste 0 922.1 -2.3 32
2017-11-21 15:00:00 13.8 4 Este 12 Este 0 922.7 -2.6 32
2017-11-21 14:00:00 13.5 6 Este -- -- -- 923.4 -2 33
2017-11-21 13:00:00 12.9 4 Este 10 Este 0 924.4 -1 34
2017-11-21 12:00:00 11 4 Este 11 Nordeste 0 925.3 -0.2 38
2017-11-21 11:00:00 8.1 4 Este 9 Noroeste 0 925.4 0 43
2017-11-21 10:00:00 4.8 3 Noroeste 10 Noroeste 0 925.4 0.1 57
2017-11-21 09:00:00 1.3 8 Noroeste 14 Noroeste 0 925.5 0.4 67
2017-11-21 08:00:00 1.3 5 Noroeste 9 Noroeste 0 925.4 0.3 63
2017-11-21 07:00:00 1.2 6 Norte 13 Norte 0 925.3 -0.1 65
2017-11-21 06:00:00 1.4 5 Noroeste 15 Noroeste 0 925.1 -0.4 65
2017-11-21 05:00:00 0.7 7 Noroeste 12 Noroeste 0 925.1 -0.7 68
2017-11-21 04:00:00 1.3 5 Noroeste 13 Noroeste 0 925.4 -0.6 66
2017-11-21 03:00:00 1.2 10 Noroeste 17 Noroeste 0 925.5 -0.7 69
2017-11-21 02:00:00 1.9 9 Noroeste 14 Noroeste 0 925.8 -0.4 63
2017-11-21 01:00:00 3.4 8 Noroeste 13 Noroeste 0 926 -0.3 55
2017-11-21 00:00:00 4 9 Noroeste 14 Noroeste 0 926.2 -0.1 51
2017-11-20 23:00:00 4.5 5 Noroeste 19 Noroeste 0 926.2 0.1 47
2017-11-20 22:00:00 4.8 8 Noroeste 19 Noroeste 0 926.3 0.6 48
2017-11-20 21:00:00 6 10 Noroeste 18 Oeste 0 926.3 0.8 46
2017-11-20 20:00:00 6.7 9 Noroeste 16 Noroeste 0 926.1 0.8 50
2017-11-20 19:00:00 8.6 8 Noroeste 12 Noroeste 0 925.7 0.7 51
2017-11-20 18:00:00 11.2 4 Oeste 6 Noroeste 0 925.5 0.2 44
2017-11-20 17:00:00 13.3 0 Calma 6 Este 0 925.3 -0.3 39
2017-11-20 16:00:00 14.5 4 Nordeste 10 Sudeste 0 925 -1.5 33
2017-11-20 15:00:00 15.6 6 Este 9 Este 0 925.3 -2.3 30
2017-11-20 14:00:00 15.2 6 Sudeste 12 Sudeste 0 925.6 -2.2 30
2017-11-20 13:00:00 13.5 4 Este 10 Este 0 926.5 -1.2 31
2017-11-20 12:00:00 11.5 6 Este 14 Sudeste 0 927.6 0.1 34
2017-11-20 11:00:00 8.8 3 Norte 8 Noroeste 0 927.8 0.7 43
2017-11-20 10:00:00 5.2 5 Noroeste 9 Noroeste 0 927.7 0.9 53
2017-11-20 09:00:00 1.7 5 Noroeste 11 Noroeste 0 927.5 1.1 68
2017-11-20 08:00:00 1.2 8 Noroeste 11 Noroeste 0 927.1 1 71
2017-11-20 07:00:00 1.5 5 Noroeste 12 Noroeste 0 926.8 0.6 71
2017-11-20 06:00:00 1.9 8 Noroeste 12 Noroeste 0 926.4 -0.2 72
2017-11-20 05:00:00 2.1 8 Noroeste 14 Noroeste 0 926.1 -0.6 72
2017-11-20 04:00:00 2.2 10 Noroeste 16 Noroeste 0 926.2 -0.6 73
2017-11-20 03:00:00 3 7 Noroeste 13 Noroeste 0 926.6 -0.3 71
2017-11-20 02:00:00 2.9 8 Noroeste 15 Noroeste 0 926.7 -0.1 71
2017-11-20 01:00:00 3.3 9 Noroeste 16 Noroeste 0 926.8 0 70
2017-11-20 00:00:00 4 8 Noroeste 15 Oeste 0 926.9 0.3 67
2017-11-19 23:00:00 5 9 Noroeste 14 Noroeste 0 926.8 0.5 63
2017-11-19 22:00:00 5.6 9 Noroeste 16 Noroeste 0 926.8 0.9 61
2017-11-19 21:00:00 6.3 9 Noroeste 15 Noroeste 0 926.6 1 59
2017-11-19 20:00:00 7.6 6 Noroeste 15 Noroeste 0 926.3 1.1 56
2017-11-19 19:00:00 9.5 5 Oeste 10 Noroeste 0 925.9 0.8 49
2017-11-19 18:00:00 12.2 5 Noroeste 10 Oeste 0 925.6 0.4 38
2017-11-19 17:00:00 13.8 3 Sudeste 6 Sudeste 0 925.2 -0.6 37
2017-11-19 16:00:00 15.3 4 Sudeste 12 Sudeste 0 925.1 -1.1 32
2017-11-19 15:00:00 15.8 4 Sudeste 9 Este 0 925.2 -1.6 31
2017-11-19 14:00:00 14.7 6 Este 14 Este 0 925.8 -1 35
2017-11-19 13:00:00 14.4 5 Este 11 Sudeste 0 926.2 -0.4 38
2017-11-19 12:00:00 11.9 4 Este 9 Este 0 926.8 0.7 44
2017-11-19 11:00:00 8.4 6 Noroeste 9 Noroeste 0 926.8 1.3 57
2017-11-19 10:00:00 5 0 Calma 10 Noroeste 0 926.6 1.3 66
2017-11-19 09:00:00 1.6 6 Noroeste 10 Noroeste 0 926.1 0.9 74
2017-11-19 08:00:00 0.8 7 Noroeste 12 Noroeste 0 925.5 0.2 77
2017-11-19 07:00:00 1.4 5 Noroeste 12 Noroeste 0 925.3 -0.3 77
2017-11-19 06:00:00 1.5 8 Noroeste 12 Noroeste 0 925.2 -0.2 79
2017-11-19 05:00:00 2.1 10 Noroeste 16 Noroeste 0 925.3 0.1 80
2017-11-19 04:00:00 2.7 8 Noroeste 15 Noroeste 0 925.6 0.4 78
2017-11-19 03:00:00 2.9 10 Noroeste 15 Noroeste 0 925.4 0.1 79
2017-11-19 02:00:00 3.2 8 Noroeste 15 Noroeste 0 925.2 0.1 78
2017-11-19 01:00:00 3.6 10 Noroeste 15 Noroeste 0 925.2 -0.1 77
2017-11-19 00:00:00 4.4 9 Noroeste 17 Noroeste 0 925.3 0.1 75
2017-11-18 23:00:00 5 10 Noroeste 15 Noroeste 0 925.1 0 72
2017-11-18 22:00:00 5.8 9 Noroeste 14 Noroeste 0 925.3 0.5 69
2017-11-18 21:00:00 6.5 9 Noroeste 15 Noroeste 0 925.2 0.8 67
2017-11-18 20:00:00 7.9 7 Oeste 14 Oeste 0 925.1 0.7 61
2017-11-18 19:00:00 9.7 6 Oeste 9 Noroeste 0 924.8 0.7 56
2017-11-18 18:00:00 12.2 2 Oeste 9 Oeste 0 924.4 0.2 45
2017-11-18 17:00:00 14 5 Oeste 9 Oeste 0 924.4 -0.3 42
2017-11-18 16:00:00 15.1 4 Este 12 Este 0 924.1 -1.2 35
2017-11-18 15:00:00 15.5 6 Este 12 Este 0 924.2 -1.7 35
2017-11-18 14:00:00 15.1 5 Este 12 Este 0 924.7 -1.4 39
2017-11-18 13:00:00 14.5 6 Este 13 Este 0 925.3 -0.6 41
2017-11-18 12:00:00 12.2 6 Noroeste 12 Norte 0 925.9 0.5 49
2017-11-18 11:00:00 9.7 6 Este 10 Noroeste 0 926.1 1.4 58
2017-11-18 10:00:00 6 6 Noroeste 9 Norte 0 925.9 1.1 73
2017-11-18 09:00:00 2.6 6 Noroeste 12 Noroeste 0 925.4 0.5 81
2017-11-18 08:00:00 1.9 8 Noroeste 14 Noroeste 0 924.7 -0.1 82
2017-11-18 07:00:00 2.9 8 Noroeste 14 Norte 0 924.8 -0.3 79
2017-11-18 06:00:00 2.6 4 Noroeste 15 Noroeste 0 924.9 -0.2 80
2017-11-18 05:00:00 2.6 9 Noroeste 14 Noroeste 0 924.8 -0.4 79
2017-11-18 04:00:00 3 8 Noroeste 15 Noroeste 0 925.1 -0.2 78
2017-11-18 03:00:00 3.4 9 Noroeste 14 Noroeste 0 925.1 -0.2 77
2017-11-18 02:00:00 4 9 Noroeste 13 Noroeste 0 925.2 -0.1 75
2017-11-18 01:00:00 4.4 8 Noroeste 12 Noroeste 0 925.3 0.4 73
2017-11-18 00:00:00 5.1 8 Noroeste 11 Noroeste 0 925.3 0.5 71
2017-11-17 23:00:00 6.2 7 Noroeste 13 Oeste 0 925.3 0.5 66
2017-11-17 22:00:00 6.9 8 Noroeste 14 Noroeste 0 924.9 0.2 64
2017-11-17 21:00:00 7.9 8 Noroeste 12 Noroeste 0 924.8 0.5 61
2017-11-17 20:00:00 8.5 7 Noroeste 10 Oeste 0 924.8 0.6 59
2017-11-17 19:00:00 10.3 7 Noroeste 10 Noroeste 0 924.7 0.7 62
2017-11-17 18:00:00 12.6 0 Calma 5 Nordeste 0 924.3 0 49
2017-11-17 17:00:00 14.5 3 Este 9 Este 0 924.2 -0.5 43
2017-11-17 16:00:00 15.6 3 Nordeste 9 Sudeste 0 924 -1.3 41
2017-11-17 15:00:00 15.8 4 Este 10 Este 0 924.3 -1.6 39
2017-11-17 14:00:00 16.2 5 Este 10 Este 0 924.7 -1.3 36
2017-11-17 13:00:00 14.8 4 Nordeste 10 Noroeste 0 925.3 -0.6 40
2017-11-17 12:00:00 12.9 4 Sudeste 10 Este 0 925.9 0.1 45
2017-11-17 11:00:00 9.4 5 Este 9 Este 0 926 0.5 52
2017-11-17 10:00:00 5.9 2 Noroeste 8 Noroeste 0 925.9 0.7 75
2017-11-17 09:00:00 2.8 4 Noroeste 12 Noroeste 0 925.8 0.7 78
2017-11-17 08:00:00 2.3 8 Noroeste 13 Noroeste 0 925.5 0.5 78
2017-11-17 07:00:00 2.9 8 Noroeste 12 Noroeste 0 925.2 0.1 77
2017-11-17 06:00:00 2.9 8 Noroeste 11 Noroeste 0 925.1 -0.2 78
2017-11-17 05:00:00 2.9 6 Noroeste 12 Noroeste 0 925 -0.4 78
2017-11-17 04:00:00 3.4 5 Noroeste 13 Noroeste 0 925.1 -0.4 76
2017-11-17 03:00:00 3.7 8 Noroeste 13 Noroeste 0 925.3 -0.3 76
2017-11-17 02:00:00 4.3 8 Noroeste 16 Noroeste 0 925.4 0.1 74
2017-11-17 01:00:00 4.2 10 Noroeste 16 Noroeste 0 925.5 0 76
2017-11-17 00:00:00 5.2 9 Noroeste 16 Noroeste 0 925.6 0.3 72
2017-11-16 23:00:00 5.8 10 Noroeste 15 Noroeste 0 925.3 0.3 69
2017-11-16 22:00:00 6.6 9 Noroeste 16 Noroeste 0 925.5 0.9 67
2017-11-16 21:00:00 7.7 7 Noroeste 17 Oeste 0 925.3 1 61
2017-11-16 20:00:00 8.9 7 Oeste 15 Oeste 0 925 1 56
2017-11-16 19:00:00 10.3 9 Noroeste 15 Noroeste 0 924.6 0.6 48
2017-11-16 18:00:00 12.6 6 Oeste 8 Oeste 0 924.3 0.4 43
2017-11-16 17:00:00 14.7 5 Oeste 12 Oeste 0 924 -0.4 37
2017-11-16 16:00:00 15.9 4 Nordeste 12 Este 0 924 -0.9 32
2017-11-16 15:00:00 16.4 4 Norte 10 Sudeste 0 923.9 -1.5 35
2017-11-16 14:00:00 15.9 5 Este 12 Sudeste 0 924.4 -1 40
2017-11-16 13:00:00 15.5 6 Sudeste 13 Sudeste 0 924.9 -0.3 42
2017-11-16 12:00:00 12.7 4 Norte 8 Este 0 925.4 0.8 50
2017-11-16 11:00:00 9.4 3 Este 8 Sudeste 0 925.4 1.3 57
2017-11-16 10:00:00 6.3 3 Noroeste 8 Noroeste 0 925.2 1.4 72
2017-11-16 09:00:00 2.7 6 Noroeste 10 Oeste 0 924.6 0.9 79
2017-11-16 08:00:00 1.8 6 Oeste 13 Noroeste 0 924.1 0.7 80
2017-11-16 07:00:00 2.5 8 Noroeste 12 Noroeste 0 923.8 0.4 79
2017-11-16 06:00:00 2.5 7 Noroeste 14 Noroeste 0 923.7 0.3 80
2017-11-16 05:00:00 2.8 7 Noroeste 12 Oeste 0 923.4 0.1 78
2017-11-16 04:00:00 3.2 9 Noroeste 12 Noroeste 0 923.4 0 78
2017-11-16 03:00:00 3.2 7 Oeste 15 Noroeste 0 923.4 0 79
2017-11-16 02:00:00 3.8 9 Noroeste 13 Noroeste 0 923.3 -0.3 79
2017-11-16 01:00:00 4.1 9 Noroeste 13 Noroeste 0 923.4 -0.1 78
2017-11-16 00:00:00 4.7 9 Noroeste 15 Noroeste 0 923.4 0 76
2017-11-15 23:00:00 5 9 Noroeste 15 Noroeste 0 923.6 0.2 75
2017-11-15 22:00:00 5.8 9 Noroeste 16 Noroeste 0 923.5 0.6 72
2017-11-15 21:00:00 6.7 7 Noroeste 14 Noroeste 0 923.4 0.9 69
2017-11-15 20:00:00 8.1 8 Noroeste 15 Noroeste 0 923.4 1 63
2017-11-15 19:00:00 9.7 8 Oeste 13 Noroeste 0 922.9 0.6 59
2017-11-15 18:00:00 11.6 6 Oeste 14 Oeste 0 922.5 0.1 53
2017-11-15 17:00:00 13.9 7 Noroeste 15 Noroeste 0 922.4 -0.5 45
2017-11-15 16:00:00 15.9 7 Oeste 13 Oeste 0 922.3 -1.2 39
2017-11-15 15:00:00 16.2 5 Sudeste 11 Nordeste 0 922.4 -1.7 36
2017-11-15 14:00:00 15.6 3 Este 12 Sudeste 0 922.9 -1.3 38
2017-11-15 13:00:00 14.6 6 Este 12 Este 0 923.5 -0.6 40
2017-11-15 12:00:00 13.2 5 Sudeste 9 Este 0 924.1 0.3 49
2017-11-15 11:00:00 9 6 Norte 12 Norte 0 924.2 0.9 61
2017-11-15 10:00:00 5.7 4 Noroeste 13 Noroeste 0 924.1 1.1 77
2017-11-15 09:00:00 2.6 6 Noroeste 13 Noroeste 0 923.8 1.2 83
2017-11-15 08:00:00 2.3 6 Norte 14 Noroeste 0 923.3 0.5 86
2017-11-15 07:00:00 2.5 7 Noroeste 10 Noroeste 0 923 0 85
2017-11-15 06:00:00 2.7 6 Noroeste 10 Noroeste 0 922.6 -0.5 85
2017-11-15 05:00:00 2.8 7 Noroeste 12 Noroeste 0 922.8 -0.2 84
2017-11-15 04:00:00 2.8 9 Noroeste 13 Noroeste 0 923 -0.2 83
2017-11-15 03:00:00 3 8 Noroeste 11 Noroeste 0 923.1 -0.2 83
2017-11-15 02:00:00 3.1 7 Noroeste 10 Oeste 0 923 -0.7 84
2017-11-15 01:00:00 3.2 6 Noroeste 13 Noroeste 0 923.2 -0.5 85
2017-11-15 00:00:00 3.9 5 Noroeste 13 Noroeste 0 923.3 -0.3 81